Time;durP1;ratioP1;P1;durP2;ratioP2;P2;SDS_P1;SDS_P2;PMS_P1;PMS_P2;Temp;Humidity;BMP_temperature;BMP_pressure;BME280_temperature;BME280_humidity;BME280_pressure;Samples;Min_cycle;Max_cycle;Signal;HPM_P1;HPM_P2
2021/12/17 00:05:03;;;;;;;2.75;1.90;;;12.10;92.60;;;;;;5041690;28;20124;-77
2021/12/17 00:07:32;;;;;;;1.50;1.05;;;12.10;92.70;;;;;;5054135;28;20043;-77
2021/12/17 00:10:01;;;;;;;1.60;1.25;;;12.10;92.70;;;;;;5035959;28;20036;-77
2021/12/17 00:12:27;;;;;;;2.05;1.30;;;12.10;92.80;;;;;;5051395;28;20033;-77
2021/12/17 00:14:53;;;;;;;1.58;1.33;;;12.00;92.90;;;;;;5054647;28;20373;-77
2021/12/17 00:17:25;;;;;;;2.60;1.80;;;12.00;92.90;;;;;;5053265;28;20033;-77
2021/12/17 00:49:55;;;;;;;2.13;1.58;;;11.90;93.00;;;;;;5048627;28;20032;-78
2021/12/17 00:52:22;;;;;;;2.30;1.65;;;11.90;93.00;;;;;;5033897;28;20041;-78
2021/12/17 00:54:47;;;;;;;2.70;1.88;;;11.90;93.00;;;;;;5035160;28;20041;-78
2021/12/17 00:57:24;;;;;;;1.40;1.30;;;12.00;93.00;;;;;;5034223;28;20103;-77
2021/12/17 00:59:53;;;;;;;1.77;1.45;;;12.00;93.00;;;;;;5045898;28;20041;-77
2021/12/17 01:02:22;;;;;;;2.22;1.63;;;12.00;93.00;;;;;;5036516;28;20036;-77
2021/12/17 01:04:51;;;;;;;2.22;1.70;;;12.00;93.00;;;;;;5042627;28;20029;-77
2021/12/17 01:07:19;;;;;;;2.20;1.63;;;12.10;93.00;;;;;;5033269;28;20543;-77
2021/12/17 01:09:46;;;;;;;2.08;1.70;;;12.10;92.90;;;;;;5045281;28;20033;-77
2021/12/17 01:12:13;;;;;;;2.58;1.63;;;12.10;92.90;;;;;;5034657;28;20018;-78
2021/12/17 01:14:57;;;;;;;1.73;1.45;;;12.10;92.90;;;;;;5049380;28;20514;-77
2021/12/17 01:17:42;;;;;;;1.55;1.45;;;12.10;92.90;;;;;;5040949;28;20061;-77
2021/12/17 01:23:29;;;;;;;2.03;1.50;;;12.10;92.80;;;;;;5049858;28;20091;-77
2021/12/17 01:35:24;;;;;;;1.83;1.42;;;12.10;92.70;;;;;;5018244;28;20382;-77
2021/12/17 01:43:49;;;;;;;5.50;1.42;;;12.10;92.80;;;;;;5032733;28;20037;-78
2021/12/17 01:46:20;;;;;;;3.20;1.60;;;12.10;92.70;;;;;;5038485;28;20029;-77
2021/12/17 01:48:58;;;;;;;2.10;1.23;;;12.10;92.80;;;;;;5054254;28;20023;-77
2021/12/17 01:57:00;;;;;;;3.88;1.40;;;12.00;92.80;;;;;;5053614;28;20033;-77
2021/12/17 01:59:35;;;;;;;2.08;1.20;;;12.00;92.80;;;;;;5038474;28;20040;-77
2021/12/17 02:02:06;;;;;;;2.25;1.20;;;12.00;93.10;;;;;;5052509;28;20021;-77
2021/12/17 02:04:34;;;;;;;2.40;1.60;;;12.00;92.80;;;;;;5049102;28;20040;-77
2021/12/17 02:07:01;;;;;;;1.90;1.45;;;12.00;92.80;;;;;;5043530;28;20053;-77
2021/12/17 02:32:01;;;;;;;2.17;1.17;;;11.90;92.90;;;;;;5032061;28;20120;-77
2021/12/17 02:35:03;;;;;;;2.75;1.75;;;11.80;93.00;;;;;;5051282;28;20044;-77
2021/12/17 02:37:31;;;;;;;3.03;2.03;;;11.80;93.00;;;;;;5043778;28;20115;-77
2021/12/17 02:45:35;;;;;;;3.33;2.30;;;11.70;93.10;;;;;;5051654;28;20029;-77
2021/12/17 02:48:17;;;;;;;2.80;2.00;;;11.80;93.10;;;;;;5034926;28;20068;-77
2021/12/17 02:50:51;;;;;;;3.80;2.20;;;11.70;93.20;;;;;;5031499;28;20132;-77
2021/12/17 02:53:18;;;;;;;3.03;2.15;;;11.70;93.10;;;;;;5051370;28;20033;-76
2021/12/17 02:56:02;;;;;;;5.18;1.85;;;11.80;93.20;;;;;;5039520;28;20049;-76
2021/12/17 02:58:31;;;;;;;4.05;2.15;;;11.90;93.20;;;;;;5032757;28;20029;-76
2021/12/17 03:00:59;;;;;;;4.43;2.25;;;11.90;93.10;;;;;;5032742;28;20521;-77
2021/12/17 03:03:27;;;;;;;3.38;2.10;;;11.90;93.10;;;;;;5032207;28;20033;-76
2021/12/17 03:05:53;;;;;;;3.63;2.17;;;11.90;93.10;;;;;;5034967;28;20022;-76
2021/12/17 03:08:20;;;;;;;4.75;2.20;;;11.90;93.00;;;;;;5052676;28;20033;-76
2021/12/17 03:10:48;;;;;;;3.03;1.92;;;11.90;93.00;;;;;;5041808;28;20112;-77
2021/12/17 03:13:21;;;;;;;3.75;1.70;;;11.90;93.00;;;;;;5051248;28;20037;-76
2021/12/17 03:15:53;;;;;;;3.75;2.30;;;11.90;92.90;;;;;;5043084;28;20048;-76
2021/12/17 03:23:40;;;;;;;3.88;2.40;;;11.90;92.90;;;;;;5051404;28;20051;-77
2021/12/17 03:26:15;;;;;;;2.85;2.00;;;11.90;92.90;;;;;;5051709;28;20048;-76
2021/12/17 03:28:44;;;;;;;4.30;2.90;;;11.90;92.90;;;;;;5051251;28;20377;-76
2021/12/17 03:31:11;;;;;;;3.28;2.05;;;11.90;93.00;;;;;;5050255;28;20029;-76
2021/12/17 03:33:42;;;;;;;2.70;1.83;;;11.90;93.00;;;;;;5050993;28;20079;-77
2021/12/17 03:36:11;;;;;;;2.33;1.88;;;11.90;93.00;;;;;;5064113;28;20059;-76
2021/12/17 03:38:38;;;;;;;3.28;2.28;;;11.90;93.00;;;;;;5037604;28;20029;-76
2021/12/17 03:41:14;;;;;;;3.80;2.00;;;11.90;93.00;;;;;;5037487;28;20492;-76
2021/12/17 03:43:49;;;;;;;3.95;2.58;;;11.90;92.90;;;;;;5035851;28;20036;-76
2021/12/17 03:46:17;;;;;;;3.40;2.47;;;11.90;93.00;;;;;;5043953;28;20477;-76
2021/12/17 03:48:44;;;;;;;2.97;2.10;;;11.90;93.00;;;;;;5044156;28;20388;-76
2021/12/17 03:51:18;;;;;;;4.55;2.40;;;11.80;92.90;;;;;;5048655;28;20033;-77
2021/12/17 03:53:50;;;;;;;2.92;1.73;;;11.90;93.00;;;;;;5035419;28;20120;-76
2021/12/17 03:56:16;;;;;;;5.03;2.00;;;11.80;92.90;;;;;;5040080;28;20133;-76
2021/12/17 03:58:42;;;;;;;3.38;1.83;;;11.90;92.90;;;;;;5046114;28;20104;-77
2021/12/17 04:01:08;;;;;;;2.88;2.08;;;11.80;92.90;;;;;;5035862;28;20029;-76
2021/12/17 04:03:37;;;;;;;3.08;1.92;;;11.80;92.90;;;;;;5037661;28;20118;-76
2021/12/17 04:06:09;;;;;;;2.95;2.03;;;11.80;92.90;;;;;;5031913;28;20396;-78
2021/12/17 04:08:54;;;;;;;;;;;11.80;92.90;;;;;;5032101;28;20075;-76
2021/12/17 04:11:39;;;;;;;2.45;1.48;;;11.70;92.90;;;;;;5039867;28;19920;-76
2021/12/17 04:14:13;;;;;;;3.63;1.95;;;11.70;93.00;;;;;;5048236;28;20037;-76
2021/12/17 04:16:51;;;;;;;3.00;1.73;;;11.60;93.10;;;;;;5042075;28;20036;-76
2021/12/17 04:19:17;;;;;;;3.65;2.50;;;11.60;93.20;;;;;;5044851;28;20025;-76
2021/12/17 04:21:43;;;;;;;2.65;1.52;;;11.60;93.20;;;;;;5030105;28;20042;-76
2021/12/17 04:24:09;;;;;;;3.03;1.85;;;11.50;93.20;;;;;;5035438;28;20404;-76
2021/12/17 04:26:34;;;;;;;3.38;1.90;;;11.60;93.30;;;;;;5038886;28;20129;-76
2021/12/17 04:29:08;;;;;;;;;;;11.50;93.30;;;;;;5030092;28;20448;-76
2021/12/17 04:31:34;;;;;;;1.58;1.30;;;11.50;93.30;;;;;;5049478;28;19956;-76
2021/12/17 04:33:59;;;;;;;3.85;1.92;;;11.50;93.30;;;;;;5055503;28;20376;-76
2021/12/17 04:36:32;;;;;;;2.65;1.90;;;11.50;93.40;;;;;;5052129;28;20032;-76
2021/12/17 04:39:02;;;;;;;4.60;2.03;;;11.60;93.50;;;;;;5043120;28;20032;-76
2021/12/17 04:44:07;;;;;;;2.55;1.92;;;11.50;93.40;;;;;;5050712;28;20064;-76
2021/12/17 04:46:40;;;;;;;4.97;2.58;;;11.50;93.40;;;;;;5038753;28;20099;-76
2021/12/17 04:57:29;;;;;;;5.10;2.97;;;11.60;93.40;;;;;;5037523;28;20502;-78
2021/12/17 04:59:58;;;;;;;3.50;2.30;;;11.70;93.70;;;;;;5035671;28;20021;-75
2021/12/17 05:02:26;;;;;;;4.35;2.55;;;11.70;93.50;;;;;;5032192;28;20021;-77
2021/12/17 05:05:08;;;;;;;4.03;2.60;;;11.80;93.50;;;;;;5035556;28;20049;-76
2021/12/17 05:07:41;;;;;;;4.20;2.47;;;11.70;93.40;;;;;;5037234;28;20431;-78
2021/12/17 05:18:27;;;;;;;7.82;2.78;;;11.70;93.20;;;;;;5040683;28;20476;-78
2021/12/17 05:21:03;;;;;;;5.97;3.10;;;11.70;93.20;;;;;;5036341;28;20503;-76
2021/12/17 05:23:39;;;;;;;3.83;2.20;;;11.80;93.30;;;;;;5044604;28;20041;-78
2021/12/17 05:26:13;;;;;;;4.38;2.90;;;11.70;93.20;;;;;;5046756;28;20029;-80
2021/12/17 05:28:43;;;;;;;5.03;2.95;;;11.70;93.20;;;;;;5049486;28;20191;-77
2021/12/17 05:31:14;;;;;;;4.47;2.58;;;11.80;93.30;;;;;;5052467;28;20403;-83
2021/12/17 05:33:43;;;;;;;4.68;3.00;;;11.80;93.30;;;;;;5036202;28;20033;-81
2021/12/17 05:36:10;;;;;;;5.10;2.88;;;11.80;93.30;;;;;;5032869;28;20030;-79
2021/12/17 05:38:44;;;;;;;4.50;2.58;;;11.80;93.30;;;;;;5032399;28;20036;-79
2021/12/17 05:41:10;;;;;;;5.97;3.10;;;11.80;93.20;;;;;;5045105;28;20039;-79
2021/12/17 05:43:57;;;;;;;5.43;3.00;;;11.80;93.20;;;;;;5043902;28;20032;-74
2021/12/17 05:49:27;;;;;;;8.48;3.47;;;11.80;93.10;;;;;;5031122;28;20044;-78
2021/12/17 05:51:55;;;;;;;6.32;3.22;;;11.70;93.10;;;;;;5051925;28;20412;-78
2021/12/17 05:54:22;;;;;;;9.25;3.38;;;11.70;93.10;;;;;;5053553;28;20477;-78
2021/12/17 05:56:49;;;;;;;6.63;3.13;;;11.70;93.10;;;;;;5052258;28;20401;-78
2021/12/17 05:59:16;;;;;;;8.63;3.88;;;11.70;93.10;;;;;;5039757;28;20555;-78
2021/12/17 06:01:42;;;;;;;8.43;3.15;;;11.70;93.10;;;;;;5052192;28;20128;-78
2021/12/17 06:04:08;;;;;;;4.93;2.47;;;11.80;93.10;;;;;;5046215;28;20112;-80
2021/12/17 06:06:49;;;;;;;7.00;3.17;;;11.70;93.10;;;;;;5047917;28;20025;-72
2021/12/17 06:09:15;;;;;;;8.43;4.22;;;11.70;93.10;;;;;;5041868;28;20431;-72
2021/12/17 06:11:43;;;;;;;7.82;4.18;;;11.70;93.10;;;;;;5039757;28;20079;-72
2021/12/17 06:14:11;;;;;;;9.63;3.97;;;11.60;93.10;;;;;;5031210;28;20079;-74
2021/12/17 06:16:37;;;;;;;11.73;5.25;;;11.70;93.20;;;;;;5031595;28;20437;-74
2021/12/17 06:19:09;;;;;;;9.55;4.25;;;11.70;93.20;;;;;;5035473;28;20017;-78
2021/12/17 06:21:35;;;;;;;11.70;4.80;;;11.70;93.20;;;;;;5031074;28;20083;-74
2021/12/17 06:24:01;;;;;;;10.77;4.97;;;11.70;93.20;;;;;;5033085;28;20079;-74
2021/12/17 06:26:28;;;;;;;11.27;5.15;;;11.70;93.20;;;;;;5033610;28;20025;-73
2021/12/17 06:28:55;;;;;;;10.70;4.82;;;11.80;93.20;;;;;;5032640;28;20448;-77
2021/12/17 06:31:21;;;;;;;8.70;4.30;;;11.80;93.10;;;;;;5033178;28;20049;-77
2021/12/17 06:33:48;;;;;;;11.38;4.85;;;11.70;93.10;;;;;;5037318;28;20492;-77
2021/12/17 06:36:14;;;;;;;11.65;5.22;;;11.70;93.10;;;;;;5031837;28;20034;-79
2021/12/17 06:38:40;;;;;;;13.90;4.40;;;11.70;93.10;;;;;;5045888;28;20028;-79
2021/12/17 06:41:06;;;;;;;14.23;5.75;;;11.70;93.10;;;;;;5032190;28;20141;-80
2021/12/17 06:43:39;;;;;;;18.20;5.82;;;11.70;93.10;;;;;;5035175;28;20514;-79
2021/12/17 06:48:39;;;;;;;12.00;5.10;;;11.70;93.10;;;;;;5030757;28;20419;-79
2021/12/17 07:06:17;;;;;;;13.85;4.80;;;11.70;92.90;;;;;;5030551;28;20044;-73
2021/12/17 07:17:24;;;;;;;10.63;4.85;;;11.70;92.90;;;;;;5048372;28;20530;-76
2021/12/17 07:22:50;;;;;;;16.48;5.43;;;11.70;93.00;;;;;;5035489;28;20061;-82
2021/12/17 07:28:30;;;;;;;14.63;5.03;;;11.80;93.00;;;;;;5049575;28;20119;-83
2021/12/17 07:33:34;;;;;;;13.18;5.70;;;11.80;93.00;;;;;;5046254;28;20548;-80
2021/12/17 07:36:16;;;;;;;12.52;5.85;;;11.80;93.00;;;;;;5043831;28;20045;-79
2021/12/17 07:38:50;;;;;;;12.57;4.93;;;11.80;93.00;;;;;;5048403;28;20112;-79
2021/12/17 07:41:34;;;;;;;14.43;5.40;;;11.80;93.00;;;;;;5040247;28;20044;-79
2021/12/17 07:44:13;;;;;;;9.55;4.75;;;11.90;92.90;;;;;;5045777;28;20100;-80
2021/12/17 07:46:52;;;;;;;15.48;5.90;;;11.90;92.90;;;;;;5040256;28;20432;-78
2021/12/17 07:49:18;;;;;;;15.90;6.10;;;11.80;92.90;;;;;;5049755;28;20025;-77
2021/12/17 07:51:43;;;;;;;12.02;5.32;;;11.90;92.90;;;;;;5050130;28;20195;-78
2021/12/17 07:54:16;;;;;;;13.87;5.23;;;11.90;92.90;;;;;;5050849;28;20530;-77
2021/12/17 07:56:42;;;;;;;13.05;4.95;;;11.90;92.90;;;;;;5051007;28;20036;-77
2021/12/17 07:59:16;;;;;;;9.88;4.65;;;11.90;92.90;;;;;;5036931;28;20083;-77
2021/12/17 08:01:42;;;;;;;10.90;4.80;;;11.90;92.90;;;;;;5049564;28;20489;-77
2021/12/17 08:04:08;;;;;;;12.90;5.25;;;11.90;92.90;;;;;;5051767;28;20021;-77
2021/12/17 08:06:52;;;;;;;12.77;5.53;;;11.90;92.90;;;;;;5045583;28;20025;-77
2021/12/17 08:09:21;;;;;;;12.07;5.65;;;12.00;92.90;;;;;;5044110;28;20037;-82
2021/12/17 08:11:55;;;;;;;13.65;5.63;;;12.00;92.90;;;;;;5040001;28;20025;-78
2021/12/17 08:14:23;;;;;;;11.43;5.63;;;12.00;93.00;;;;;;5041078;28;20029;-78
2021/12/17 08:28:03;;;;;;;11.30;4.85;;;12.10;92.90;;;;;;5040742;28;20037;-77
2021/12/17 08:30:38;;;;;;;18.92;6.13;;;12.10;92.90;;;;;;5036634;28;20032;-76
2021/12/17 08:33:09;;;;;;;12.30;6.45;;;12.20;92.90;;;;;;5050646;28;20032;-77
2021/12/17 08:35:36;;;;;;;17.63;6.93;;;12.10;92.90;;;;;;5044068;28;20137;-76
2021/12/17 08:38:09;;;;;;;14.82;5.90;;;12.10;93.00;;;;;;5052177;28;20120;-77
2021/12/17 08:40:37;;;;;;;13.45;6.68;;;12.10;93.00;;;;;;5041750;28;20025;-77
2021/12/17 08:43:05;;;;;;;20.15;6.15;;;12.10;93.00;;;;;;5033988;28;20021;-78
2021/12/17 08:45:36;;;;;;;16.58;6.55;;;12.10;93.00;;;;;;5042207;28;20025;-83
2021/12/17 08:48:32;;;;;;;17.98;6.47;;;12.10;93.10;;;;;;5046994;28;20067;-80
2021/12/17 08:51:16;;;;;;;15.35;6.10;;;12.10;93.10;;;;;;5046117;28;20530;-76
2021/12/17 08:53:43;;;;;;;19.60;7.03;;;12.10;93.10;;;;;;5053562;28;20117;-78
2021/12/17 08:56:09;;;;;;;20.15;6.78;;;12.20;93.20;;;;;;5054382;28;20044;-76
2021/12/17 08:58:35;;;;;;;15.68;5.75;;;12.20;93.20;;;;;;5037057;28;20026;-72
2021/12/17 09:01:04;;;;;;;14.02;5.63;;;12.20;93.20;;;;;;5036316;28;20037;-77
2021/12/17 09:03:32;;;;;;;15.98;5.65;;;12.20;93.20;;;;;;5032912;28;20025;-77
2021/12/17 09:06:24;;;;;;;17.30;6.07;;;12.20;93.20;;;;;;5053727;28;20121;-77
2021/12/17 09:08:54;;;;;;;15.13;6.10;;;12.20;93.20;;;;;;5039597;28;20397;-78
2021/12/17 09:11:22;;;;;;;13.85;5.32;;;12.20;93.20;;;;;;5053659;28;20431;-77
2021/12/17 09:13:53;;;;;;;14.85;5.95;;;12.20;93.30;;;;;;5038805;28;20028;-79
2021/12/17 09:16:21;;;;;;;11.88;5.00;;;12.20;93.30;;;;;;5045376;28;20037;-77
2021/12/17 09:18:56;;;;;;;11.95;5.03;;;12.20;93.30;;;;;;5034569;28;20025;-77
2021/12/17 09:21:39;;;;;;;13.88;5.07;;;12.20;93.40;;;;;;5032619;28;20059;-77
2021/12/17 09:24:13;;;;;;;10.52;4.28;;;12.20;93.30;;;;;;5030761;28;20087;-77
2021/12/17 09:27:17;;;;;;;15.15;5.03;;;12.20;93.30;;;;;;5020319;28;20397;-77
2021/12/17 09:30:05;;;;;;;11.77;4.60;;;12.20;93.30;;;;;;5042982;28;20549;-77
2021/12/17 09:32:31;;;;;;;15.77;4.45;;;12.30;93.40;;;;;;5037735;28;20307;-77
2021/12/17 09:34:57;;;;;;;10.52;4.30;;;12.30;93.40;;;;;;5034046;28;20083;-77
2021/12/17 09:37:23;;;;;;;8.00;4.13;;;12.30;93.50;;;;;;5034245;28;20060;-77
2021/12/17 09:39:49;;;;;;;9.00;4.00;;;12.30;93.50;;;;;;5034489;28;20037;-77
2021/12/17 09:42:15;;;;;;;15.07;4.60;;;12.30;93.50;;;;;;5051452;28;20032;-77
2021/12/17 09:44:41;;;;;;;10.40;4.63;;;12.30;93.50;;;;;;5053390;28;20035;-77
2021/12/17 09:47:08;;;;;;;12.65;4.70;;;12.40;93.60;;;;;;5041512;28;20033;-77
2021/12/17 09:49:34;;;;;;;19.70;4.70;;;12.40;93.50;;;;;;5047177;28;20116;-77
2021/12/17 09:52:00;;;;;;;11.18;3.95;;;12.40;93.60;;;;;;5033089;28;20049;-77
2021/12/17 09:54:26;;;;;;;9.70;4.60;;;12.40;93.60;;;;;;5041275;28;20557;-77
2021/12/17 09:56:52;;;;;;;9.82;3.78;;;12.40;93.50;;;;;;5039947;28;20481;-77
2021/12/17 09:59:18;;;;;;;8.68;3.35;;;12.40;93.50;;;;;;5041298;28;20120;-77
2021/12/17 10:01:45;;;;;;;7.25;3.42;;;12.40;93.50;;;;;;5053160;28;20103;-77
2021/12/17 10:04:21;;;;;;;6.55;3.35;;;12.50;93.60;;;;;;5042491;28;20041;-77
2021/12/17 10:06:48;;;;;;;6.75;3.38;;;12.40;93.60;;;;;;5049567;28;20123;-77
2021/12/17 10:09:15;;;;;;;4.68;2.63;;;12.50;93.60;;;;;;5033625;28;20037;-76
2021/12/17 10:12:04;;;;;;;7.22;2.85;;;12.50;93.60;;;;;;5036514;28;20049;-79
2021/12/17 10:14:29;;;;;;;10.68;3.30;;;12.50;93.60;;;;;;5040641;28;20030;-80
2021/12/17 10:17:10;;;;;;;5.25;3.28;;;12.50;93.60;;;;;;5035372;28;20527;-80
2021/12/17 10:19:55;;;;;;;4.57;2.97;;;12.60;93.60;;;;;;5043973;28;20036;-80
2021/12/17 10:22:22;;;;;;;7.45;3.22;;;12.60;93.60;;;;;;5035864;28;20129;-80
2021/12/17 10:25:00;;;;;;;8.68;3.38;;;12.60;93.60;;;;;;5035646;28;20050;-79
2021/12/17 10:27:28;;;;;;;6.07;3.03;;;12.50;93.70;;;;;;5032151;28;20040;-80
2021/12/17 10:29:55;;;;;;;5.47;2.92;;;12.60;93.70;;;;;;5038298;28;20026;-76
2021/12/17 10:32:24;;;;;;;7.65;3.33;;;12.60;93.70;;;;;;5032899;28;20065;-77
2021/12/17 10:35:12;;;;;;;6.57;3.00;;;12.60;93.80;;;;;;5034678;28;20392;-77
2021/12/17 10:37:43;;;;;;;5.75;3.10;;;12.60;93.90;;;;;;5032563;28;20503;-77
2021/12/17 10:40:34;;;;;;;3.70;3.00;;;12.60;93.90;;;;;;5032045;28;20040;-77
2021/12/17 10:43:32;;;;;;;6.50;2.88;;;12.60;93.90;;;;;;5038416;28;21319;-76
2021/12/17 10:46:08;;;;;;;5.88;3.13;;;12.60;93.90;;;;;;5034675;28;20423;-77
2021/12/17 10:51:22;;;;;;;5.53;2.83;;;12.60;93.90;;;;;;5045487;28;20567;-77
2021/12/17 10:53:54;;;;;;;7.55;3.08;;;12.70;93.90;;;;;;5037796;28;20464;-76
2021/12/17 10:56:25;;;;;;;4.95;2.45;;;12.70;93.90;;;;;;5035106;28;20094;-77
2021/12/17 10:59:03;;;;;;;4.80;2.72;;;12.70;93.90;;;;;;5033317;28;20381;-77
2021/12/17 11:01:33;;;;;;;3.42;1.98;;;12.70;93.90;;;;;;5034114;28;20095;-77
2021/12/17 11:04:10;;;;;;;5.90;2.40;;;12.70;93.80;;;;;;5038136;28;20032;-77
2021/12/17 11:06:46;;;;;;;3.63;2.38;;;12.70;93.80;;;;;;5038361;28;20034;-76
2021/12/17 11:09:12;;;;;;;12.65;3.17;;;12.80;93.80;;;;;;5033368;28;20592;-79
2021/12/17 11:11:42;;;;;;;5.65;2.72;;;12.80;93.80;;;;;;5044687;28;20124;-78
2021/12/17 11:14:08;;;;;;;5.20;2.95;;;12.80;93.80;;;;;;5045926;28;20029;-78
2021/12/17 11:16:38;;;;;;;4.15;2.63;;;12.80;93.80;;;;;;5032389;28;20042;-78
2021/12/17 11:19:04;;;;;;;4.20;2.67;;;12.80;93.90;;;;;;5045612;28;20078;-78
2021/12/17 11:21:32;;;;;;;3.40;2.60;;;12.90;93.90;;;;;;5052213;28;20037;-79
2021/12/17 11:24:00;;;;;;;5.32;2.60;;;12.90;93.90;;;;;;5051635;28;20054;-79
2021/12/17 11:26:27;;;;;;;9.63;2.97;;;12.90;93.80;;;;;;5052798;28;20033;-78
2021/12/17 11:29:00;;;;;;;3.88;2.50;;;12.90;93.90;;;;;;5039420;28;20048;-78
2021/12/17 11:31:26;;;;;;;5.07;2.70;;;12.90;93.90;;;;;;5051914;28;20040;-79
2021/12/17 11:33:52;;;;;;;4.72;2.33;;;12.90;93.80;;;;;;5046057;28;20124;-78
2021/12/17 11:36:18;;;;;;;4.13;2.67;;;12.90;93.90;;;;;;5032026;28;20137;-78
2021/12/17 11:39:10;;;;;;;5.43;2.88;;;13.00;93.90;;;;;;5045405;28;20025;-79
2021/12/17 11:42:24;;;;;;;4.35;2.40;;;13.00;93.90;;;;;;5033464;28;20033;-78
2021/12/17 11:45:23;;;;;;;5.93;2.50;;;13.00;93.80;;;;;;5052225;28;20044;-78
2021/12/17 11:47:41;;;;;;;10.13;2.60;;;13.00;93.80;;;;;;5043614;28;20037;-78
2021/12/17 11:50:10;;;;;;;4.40;2.58;;;13.00;93.80;;;;;;5056046;28;20029;-81
2021/12/17 11:52:40;;;;;;;4.82;2.40;;;13.00;93.80;;;;;;5042062;28;20040;-74
2021/12/17 11:55:24;;;;;;;5.18;2.80;;;13.00;93.80;;;;;;5046630;28;20029;-77
2021/12/17 11:57:53;;;;;;;4.75;2.42;;;13.00;93.80;;;;;;5035373;28;20021;-77
2021/12/17 12:00:43;;;;;;;5.95;3.10;;;13.00;93.80;;;;;;5035462;28;20030;-75
2021/12/17 12:03:23;;;;;;;3.42;2.30;;;13.00;93.80;;;;;;5036366;28;20037;-77
2021/12/17 12:05:56;;;;;;;4.55;2.60;;;13.10;93.80;;;;;;5042109;28;20039;-76
2021/12/17 12:08:46;;;;;;;4.53;2.63;;;13.10;93.70;;;;;;5035904;28;20071;-77
2021/12/17 12:11:23;;;;;;;4.47;2.40;;;13.00;93.70;;;;;;5035158;28;20120;-77
2021/12/17 12:13:54;;;;;;;3.95;2.10;;;13.00;93.70;;;;;;5051636;28;20392;-77
2021/12/17 12:16:21;;;;;;;4.78;2.38;;;13.10;93.80;;;;;;5053647;28;20107;-77
2021/12/17 12:18:49;;;;;;;4.35;2.05;;;13.00;93.90;;;;;;5052334;28;20059;-78
2021/12/17 12:21:19;;;;;;;7.78;2.60;;;13.10;93.70;;;;;;5052702;28;20040;-77
2021/12/17 12:23:48;;;;;;;5.45;2.30;;;13.10;93.70;;;;;;5045651;28;20082;-78
2021/12/17 12:26:33;;;;;;;3.92;2.72;;;13.10;93.70;;;;;;5041932;28;20047;-77
2021/12/17 12:29:06;;;;;;;7.13;2.63;;;13.10;93.80;;;;;;5050818;28;20029;-78
2021/12/17 12:31:36;;;;;;;5.70;2.57;;;13.10;93.70;;;;;;5048181;28;20444;-76
2021/12/17 12:34:02;;;;;;;4.47;2.60;;;13.10;93.70;;;;;;5047188;28;20464;-83
2021/12/17 12:36:44;;;;;;;6.53;2.80;;;13.10;93.70;;;;;;5053259;28;20063;-76
2021/12/17 12:39:42;;;;;;;4.95;2.50;;;13.10;93.70;;;;;;5053721;28;20036;-78
2021/12/17 12:42:36;;;;;;;3.03;2.17;;;13.20;93.70;;;;;;5053272;28;20041;-78
2021/12/17 12:45:07;;;;;;;4.75;2.70;;;13.20;93.60;;;;;;5047564;28;20385;-78
2021/12/17 12:47:54;;;;;;;5.03;2.72;;;13.20;93.50;;;;;;5048155;28;20533;-78
2021/12/17 12:50:25;;;;;;;2.83;2.13;;;13.20;93.50;;;;;;5053122;28;20110;-77
2021/12/17 12:52:51;;;;;;;3.45;2.28;;;13.20;93.50;;;;;;5050558;28;20036;-78
2021/12/17 12:55:30;;;;;;;4.40;2.95;;;13.20;93.50;;;;;;5049846;28;20059;-78
2021/12/17 12:57:58;;;;;;;2.92;2.38;;;13.20;93.50;;;;;;5050153;28;20029;-77
2021/12/17 13:00:27;;;;;;;3.97;2.20;;;13.10;93.40;;;;;;5050383;28;20025;-77
2021/12/17 13:02:56;;;;;;;9.13;2.67;;;13.20;93.40;;;;;;5051964;28;20021;-77
2021/12/17 13:05:24;;;;;;;3.17;2.05;;;13.10;93.40;;;;;;5050200;28;20055;-77
2021/12/17 13:07:54;;;;;;;6.32;2.22;;;13.10;93.40;;;;;;5049583;28;20441;-78
2021/12/17 13:10:21;;;;;;;4.20;2.05;;;13.10;93.40;;;;;;5050532;28;20463;-77
2021/12/17 13:13:16;;;;;;;5.03;2.10;;;13.10;93.30;;;;;;5052973;28;20028;-77
2021/12/17 13:16:02;;;;;;;6.32;2.50;;;13.10;93.40;;;;;;5039806;28;20481;-76
2021/12/17 13:24:23;;;;;;;2.97;1.98;;;13.10;93.30;;;;;;5043541;28;20560;-77
2021/12/17 13:26:51;;;;;;;3.42;1.90;;;13.10;93.30;;;;;;5052395;28;20037;-77
2021/12/17 13:29:30;;;;;;;6.55;2.28;;;13.00;93.30;;;;;;5045467;28;20030;-80
2021/12/17 13:32:10;;;;;;;3.65;1.80;;;13.00;93.30;;;;;;5044157;28;20086;-85
2021/12/17 13:34:42;;;;;;;5.70;1.90;;;13.00;93.30;;;;;;5042992;28;20040;-80
2021/12/17 13:37:11;;;;;;;5.13;2.10;;;13.10;93.30;;;;;;5039986;28;20049;-76
2021/12/17 13:39:44;;;;;;;3.03;1.77;;;13.00;93.30;;;;;;5044590;28;20056;-78
2021/12/17 13:42:20;;;;;;;3.60;2.40;;;13.10;93.30;;;;;;5041291;28;20043;-78
2021/12/17 13:44:57;;;;;;;8.48;2.20;;;13.10;93.30;;;;;;5037056;28;20033;-77
2021/12/17 13:47:28;;;;;;;3.67;2.42;;;13.10;93.30;;;;;;5037464;28;20060;-77
2021/12/17 13:50:04;;;;;;;4.90;2.58;;;13.10;93.30;;;;;;5039115;28;20025;-77
2021/12/17 13:52:32;;;;;;;3.63;2.30;;;13.10;93.30;;;;;;5037177;28;20040;-77
2021/12/17 13:55:00;;;;;;;5.18;2.30;;;13.10;93.20;;;;;;5039540;28;20361;-80
2021/12/17 13:57:29;;;;;;;8.27;2.63;;;13.10;93.20;;;;;;5045360;28;20102;-78
2021/12/17 14:00:15;;;;;;;5.45;2.28;;;13.10;93.30;;;;;;5044959;28;21249;-77
2021/12/17 14:02:43;;;;;;;4.20;2.67;;;13.20;93.20;;;;;;5047089;28;20029;-78
2021/12/17 14:05:28;;;;;;;6.70;2.30;;;13.20;93.20;;;;;;5041005;28;20060;-78
2021/12/17 14:08:00;;;;;;;6.00;2.60;;;13.20;93.20;;;;;;5048327;28;20033;-77
2021/12/17 14:10:30;;;;;;;6.50;2.38;;;13.20;93.20;;;;;;5043500;28;20024;-77
2021/12/17 14:12:56;;;;;;;6.30;2.70;;;13.20;93.20;;;;;;5040980;28;20061;-78
2021/12/17 14:15:26;;;;;;;5.07;2.60;;;13.20;93.20;;;;;;5040749;28;20075;-78
2021/12/17 14:17:56;;;;;;;6.15;3.10;;;13.30;93.20;;;;;;5047467;28;20080;-78
2021/12/17 14:20:25;;;;;;;3.63;2.50;;;13.30;93.20;;;;;;5043089;28;20029;-77
2021/12/17 14:22:55;;;;;;;4.35;2.60;;;13.30;93.20;;;;;;5040157;28;20037;-80
2021/12/17 14:25:26;;;;;;;6.72;2.92;;;13.30;93.10;;;;;;5042495;28;20063;-83
2021/12/17 14:27:51;;;;;;;5.03;2.67;;;13.30;93.10;;;;;;5040596;28;20099;-74
2021/12/17 14:30:28;;;;;;;6.40;3.20;;;13.30;93.00;;;;;;5035806;28;20139;-78
2021/12/17 14:32:54;;;;;;;10.55;2.90;;;13.40;93.10;;;;;;5041681;28;20033;-79
2021/12/17 14:35:39;;;;;;;9.48;3.28;;;13.30;93.00;;;;;;5032169;28;20709;-79
2021/12/17 14:38:04;;;;;;;8.30;2.88;;;13.40;93.00;;;;;;5027933;28;20131;-78
2021/12/17 14:40:39;;;;;;;7.35;3.30;;;13.30;92.90;;;;;;5040713;28;20021;-77
2021/12/17 14:43:24;;;;;;;8.00;3.28;;;13.40;92.90;;;;;;5037515;28;20041;-77
2021/12/17 14:45:53;;;;;;;6.65;3.20;;;13.30;92.90;;;;;;5033538;28;20120;-77
2021/12/17 14:48:21;;;;;;;10.85;3.22;;;13.30;92.90;;;;;;5039676;28;20029;-81
2021/12/17 15:04:39;;;;;;;10.85;3.45;;;13.20;92.90;;;;;;5047443;28;20035;-74
2021/12/17 15:07:05;;;;;;;7.65;3.40;;;13.20;92.90;;;;;;5048484;28;20037;-79
2021/12/17 15:09:37;;;;;;;8.43;3.33;;;13.30;92.90;;;;;;5037886;28;20120;-82
2021/12/17 15:12:13;;;;;;;7.20;3.40;;;13.20;92.90;;;;;;5035820;28;20013;-80
2021/12/17 15:14:38;;;;;;;8.85;3.22;;;13.20;92.90;;;;;;5036478;28;20057;-81
2021/12/17 15:17:04;;;;;;;3.97;2.65;;;13.20;92.90;;;;;;5031314;28;20045;-80
2021/12/17 15:19:31;;;;;;;4.07;2.78;;;13.20;92.90;;;;;;5036912;28;20032;-80
2021/12/17 15:21:56;;;;;;;7.50;2.78;;;13.20;92.90;;;;;;5031511;28;20375;-79
2021/12/17 15:24:22;;;;;;;4.78;2.80;;;13.20;92.90;;;;;;5032101;28;20032;-79
2021/12/17 15:26:48;;;;;;;5.38;2.63;;;13.20;92.90;;;;;;5037035;28;20056;-78
2021/12/17 15:29:13;;;;;;;9.90;3.00;;;13.20;92.90;;;;;;5033776;28;20040;-79
2021/12/17 15:31:39;;;;;;;4.22;2.80;;;13.20;92.80;;;;;;5034235;28;20025;-78
2021/12/17 15:34:05;;;;;;;7.78;2.90;;;13.10;92.80;;;;;;5038502;28;20029;-78
2021/12/17 15:36:30;;;;;;;6.55;2.45;;;13.20;92.80;;;;;;5030987;28;20041;-78
2021/12/17 15:38:56;;;;;;;6.70;3.10;;;13.10;92.80;;;;;;5031777;28;20496;-79
2021/12/17 15:41:22;;;;;;;6.35;2.78;;;13.10;92.70;;;;;;5043339;28;20361;-71
2021/12/17 15:43:47;;;;;;;7.28;2.80;;;13.10;92.70;;;;;;5035348;28;20420;-81
2021/12/17 15:46:13;;;;;;;6.30;2.55;;;13.10;92.70;;;;;;5045638;28;20030;-79
2021/12/17 15:48:39;;;;;;;8.15;2.53;;;13.10;92.70;;;;;;5031734;28;20029;-75
2021/12/17 15:51:07;;;;;;;5.13;2.60;;;13.10;92.70;;;;;;5031799;28;20128;-76
2021/12/17 15:53:33;;;;;;;4.85;2.28;;;13.00;92.70;;;;;;5044740;28;20034;-77
2021/12/17 15:55:59;;;;;;;3.10;1.83;;;13.00;92.60;;;;;;5033025;28;20056;-80
2021/12/17 15:58:25;;;;;;;4.97;2.10;;;13.00;92.60;;;;;;5042563;28;20067;-70
2021/12/17 16:00:51;;;;;;;4.72;2.30;;;13.00;92.60;;;;;;5032689;28;20056;-75
2021/12/17 16:03:25;;;;;;;3.83;2.30;;;13.00;92.70;;;;;;5031708;28;20033;-75
2021/12/17 16:05:51;;;;;;;2.67;1.70;;;13.00;92.70;;;;;;5036385;28;20040;-75
2021/12/17 16:08:16;;;;;;;4.57;1.70;;;12.90;92.60;;;;;;5030682;28;20037;-73
2021/12/17 16:21:00;;;;;;;3.70;1.70;;;12.90;92.60;;;;;;5049853;28;20032;-75